Kezdőlap
METAR-TAF:

METAR-TAF

Repülőterek :

Grenchen, Svájc

földrajzi szélesség: 47-10-53N, földrajzi hosszúság: 007-24-59E, magasság: 430 m

Jelenlegi meteorológiai megfigyelések

A jelentés 36 perccel ezelõtt készült, 12:50 UTC
Délnyugati szél 13 kt
Hőmérséklet 9°C
Páratartalom 57%
Légköri nyomás 1029 hPa
Látótávolság 10 km, vagy több
Szórványos felhőzet 4700 lábon

METAR: LSZG 181250Z 22013KT 9999 SCT047 09/01 Q1029 NOSIG

Idő: 14:26 (13:26 UTC)

Előrejelzés

A jelentés 2 órával és 1 perccel ezelõtt készült, 11:25 UTC
Az előrejelzés 18-én 12 óra UTC és 18-én 21 óra UTC között érvényes
Nyugat-délnyugati szél 8 kt
Látótávolság 10 km, vagy több
Kevés felhő 5000 lábon

TAF: LSZG 181125Z 1812/1821 24008KT 9999 FEW050

Meteorológiai megfigyelések és előrejelzések több, mint 4000 repülőtéren (METAR és TAF jelentéseket).

A térképen piros és sárga pontok jelzik az elérhető meteorológiai állomásokat.

Mozgassa az egeret a pont fölött, hogy megjelenjen az állomás neve.

Azután kattintson az időjárási megfigyelések és előrejelzések megtekintéséhez.

A térkép megváltoztatása: kattintson a fekete keresztel jelölt zöld gombra ráközelítéshez, a vonallal jelölt zöld gombra távolításhoz, vagy a zöld nyilakra a szomszédos térképek eléréséhez.


METAR-TAF: